< Cyclone 198307 1984 Season Cyclone 198404 >
Cyclone 198403 (QUENTON)
General InformationDetailed Track InformationTrack Information on Google MapsList of All Images || ResourceGoogle EarthGE AnimationAtom FeedGeoJSON
Detalied Best Track Wind (Time Zone = UTC)
Year Month Day Hour Lat. Long. Wind (kt) Gust (kt) Direc. of Major Storm Axis Radius of Major Storm Axis (nm) Radius of Minor Storm Axis (nm) Direc. of Major Gale Axis Radius of Major Gale Axis (nm) Radius of Minor Gale Axis (nm) Image
1983 11 26 00 -10.4 112.8 25 -1 symmetric - - symmetric - - Image
1983 11 26 06 -10.6 112.9 25 -1 symmetric - - symmetric - - Image
1983 11 26 12 -10.9 113.0 25 -1 symmetric - - symmetric - - Image
1983 11 26 18 -11.3 113.0 25 -1 symmetric - - symmetric - - Image
1983 11 27 00 -11.9 113.1 25 -1 symmetric - - symmetric - - Image
1983 11 27 06 -12.5 113.3 25 -1 symmetric - - symmetric - - Image
1983 11 27 12 -12.9 114.0 30 -1 symmetric - - symmetric - - Image
1983 11 27 18 -13.5 114.7 40 -1 symmetric - - symmetric - - Image
1983 11 28 00 -14.4 115.3 45 -1 symmetric - - symmetric - - Image
1983 11 28 06 -14.9 115.6 50 -1 symmetric - - symmetric - - Image
1983 11 28 12 -15.3 116.4 50 -1 symmetric - - symmetric - - Image
1983 11 28 18 -15.7 117.2 55 -1 symmetric - - symmetric - - Image
1983 11 29 00 -16.7 118.4 80 -1 symmetric - - symmetric - - Image
1983 11 29 03 -17.3 119.0 90 -1 symmetric - - symmetric - - Image
1983 11 29 06 -17.7 119.6 90 -1 symmetric - - symmetric - - Image
1983 11 29 09 -18.3 120.2 90 -1 symmetric - - symmetric - - Image
1983 11 29 12 -18.9 120.6 90 -1 symmetric - - symmetric - - Image
1983 11 29 15 -19.5 121.3 85 -1 symmetric - - symmetric - - Image
1983 11 29 18 -20.4 121.7 65 -1 symmetric - - symmetric - - Image
1983 11 29 21 -20.8 122.3 45 -1 symmetric - - symmetric - - Image
1983 11 30 00 -21.2 122.9 35 -1 symmetric - - symmetric - - Image
1983 11 30 03 -21.4 124.4 30 -1 symmetric - - symmetric - - Image
< Cyclone 198307 1984 Season Cyclone 198404 >

Help